Time;durP1;ratioP1;P1;durP2;ratioP2;P2;SDS_P1;SDS_P2;PMS_P1;PMS_P2;Temp;Humidity;BMP_temperature;BMP_pressure;BME280_temperature;BME280_humidity;BME280_pressure;Samples;Min_cycle;Max_cycle;Signal;HPM_P1;HPM_P2
2022/03/11 00:02:18;;;;;;;;;44.00;36.75;;;;;;;;5144573;27;45311;-82
2022/03/11 00:04:45;;;;;;;;;43.75;37.00;;;;;;;;5144384;27;45391;-82
2022/03/11 00:07:10;;;;;;;;;43.75;37.00;;;;;;;;5143271;27;45282;-82
2022/03/11 00:09:35;;;;;;;;;41.25;34.25;;;;;;;;5144584;27;45305;-82
2022/03/11 00:12:01;;;;;;;;;44.00;36.00;;;;;;;;5144893;27;45349;-82
2022/03/11 00:14:26;;;;;;;;;32.50;31.00;;;;;;;;5145093;27;45267;-83
2022/03/11 00:16:51;;;;;;;;;41.75;34.75;;;;;;;;5145069;27;45280;-82
2022/03/11 00:19:16;;;;;;;;;39.25;34.00;;;;;;;;5124428;27;47008;-83
2022/03/11 00:21:41;;;;;;;;;41.75;36.00;;;;;;;;5123282;27;46637;-82
2022/03/11 00:24:07;;;;;;;;;38.50;34.00;;;;;;;;5122011;27;45347;-82
2022/03/11 00:26:32;;;;;;;;;35.50;32.50;;;;;;;;5122070;27;45530;-82
2022/03/11 00:28:57;;;;;;;;;37.00;33.75;;;;;;;;5121509;27;45866;-82
2022/03/11 00:31:23;;;;;;;;;32.00;31.50;;;;;;;;5122051;27;45418;-82
2022/03/11 00:33:48;;;;;;;;;39.00;35.50;;;;;;;;5120722;27;45378;-84
2022/03/11 00:36:13;;;;;;;;;37.00;33.25;;;;;;;;5122391;27;45215;-82
2022/03/11 00:38:39;;;;;;;;;33.00;29.75;;;;;;;;5122179;27;45379;-82
2022/03/11 00:41:04;;;;;;;;;37.25;31.25;;;;;;;;5121992;27;45263;-83
2022/03/11 00:43:29;;;;;;;;;36.50;33.50;;;;;;;;5120880;27;45272;-82
2022/03/11 00:45:54;;;;;;;;;36.00;32.50;;;;;;;;5122650;27;45320;-82
2022/03/11 00:48:20;;;;;;;;;34.25;31.25;;;;;;;;5122046;27;45312;-82
2022/03/11 00:50:46;;;;;;;;;34.50;33.00;;;;;;;;5121200;27;47615;-84
2022/03/11 00:53:12;;;;;;;;;27.50;27.00;;;;;;;;5120488;27;45407;-82
2022/03/11 00:55:37;;;;;;;;;32.75;31.00;;;;;;;;5121870;27;45383;-83
2022/03/11 00:58:02;;;;;;;;;36.25;32.75;;;;;;;;5121787;27;45343;-81
2022/03/11 01:00:27;;;;;;;;;32.25;30.50;;;;;;;;5121662;27;45398;-82
2022/03/11 01:02:53;;;;;;;;;35.25;32.50;;;;;;;;5121575;27;45346;-83
2022/03/11 01:05:19;;;;;;;;;28.50;28.00;;;;;;;;5120379;27;45546;-82
2022/03/11 01:07:44;;;;;;;;;32.25;29.00;;;;;;;;5120246;27;46276;-82
2022/03/11 01:10:09;;;;;;;;;31.00;30.50;;;;;;;;5121296;27;45429;-82
2022/03/11 01:12:35;;;;;;;;;34.25;30.00;;;;;;;;5121488;27;45307;-83
2022/03/11 01:15:00;;;;;;;;;30.75;30.50;;;;;;;;5120364;27;45563;-82
2022/03/11 01:17:26;;;;;;;;;31.00;30.25;;;;;;;;5120425;27;47343;-82
2022/03/11 01:19:51;;;;;;;;;36.00;32.25;;;;;;;;5120380;27;47239;-82
2022/03/11 01:22:17;;;;;;;;;33.00;31.75;;;;;;;;5121992;27;45445;-82
2022/03/11 01:24:42;;;;;;;;;33.50;31.00;;;;;;;;5120384;27;45310;-83
2022/03/11 01:27:07;;;;;;;;;35.00;33.25;;;;;;;;5121535;27;45674;-82
2022/03/11 01:29:33;;;;;;;;;36.25;32.00;;;;;;;;5078248;27;1177348;-82
2022/03/11 01:31:58;;;;;;;;;34.00;32.25;;;;;;;;5120822;27;45520;-83
2022/03/11 01:34:23;;;;;;;;;29.00;28.75;;;;;;;;5122217;27;45527;-83
2022/03/11 01:36:48;;;;;;;;;32.25;31.00;;;;;;;;5122242;27;45301;-83
2022/03/11 01:39:13;;;;;;;;;34.00;32.00;;;;;;;;5120636;27;47580;-83
2022/03/11 01:41:39;;;;;;;;;37.50;32.00;;;;;;;;5120925;27;45309;-82
2022/03/11 01:44:08;;;;;;;;;33.00;31.50;;;;;;;;5122282;27;45455;-82
2022/03/11 01:46:34;;;;;;;;;34.50;32.25;;;;;;;;5120734;27;46213;-82
2022/03/11 01:49:00;;;;;;;;;31.75;31.50;;;;;;;;5120265;27;48607;-83
2022/03/11 01:51:27;;;;;;;;;36.25;33.25;;;;;;;;5121053;27;45381;-82
2022/03/11 01:53:52;;;;;;;;;35.75;29.50;;;;;;;;5123026;27;45344;-83
2022/03/11 01:56:18;;;;;;;;;36.25;33.00;;;;;;;;5121064;27;46026;-82
2022/03/11 01:58:46;;;;;;;;;33.25;32.00;;;;;;;;5121692;27;45567;-82
2022/03/11 02:01:11;;;;;;;;;35.25;29.00;;;;;;;;5121965;27;45362;-83
2022/03/11 02:03:36;;;;;;;;;32.00;27.50;;;;;;;;5120907;27;45252;-82
2022/03/11 02:06:02;;;;;;;;;34.75;32.00;;;;;;;;5122014;27;45273;-83
2022/03/11 02:08:28;;;;;;;;;35.25;32.50;;;;;;;;5120399;27;47314;-83
2022/03/11 02:10:53;;;;;;;;;28.75;28.75;;;;;;;;5121811;27;45406;-83
2022/03/11 02:13:18;;;;;;;;;35.50;30.00;;;;;;;;5121833;27;45396;-82
2022/03/11 02:15:44;;;;;;;;;40.25;33.25;;;;;;;;5121585;27;45328;-83
2022/03/11 02:18:09;;;;;;;;;29.75;29.00;;;;;;;;5130091;27;45367;-82
2022/03/11 02:20:34;;;;;;;;;30.25;27.75;;;;;;;;5142446;27;45344;-83
2022/03/11 02:23:00;;;;;;;;;30.75;30.75;;;;;;;;5141287;27;45332;-83
2022/03/11 02:25:25;;;;;;;;;27.25;27.00;;;;;;;;5141547;27;47420;-82
2022/03/11 02:27:51;;;;;;;;;37.00;31.25;;;;;;;;5141401;27;48466;-82
2022/03/11 02:30:17;;;;;;;;;32.25;29.75;;;;;;;;5142576;27;45324;-82
2022/03/11 02:32:43;;;;;;;;;29.00;27.00;;;;;;;;5141473;27;45597;-83
2022/03/11 02:35:08;;;;;;;;;34.75;29.00;;;;;;;;5142103;27;45589;-82
2022/03/11 02:37:33;;;;;;;;;26.75;25.50;;;;;;;;5141994;27;46409;-82
2022/03/11 02:39:59;;;;;;;;;35.00;29.25;;;;;;;;5142130;27;45131;-82
2022/03/11 02:42:24;;;;;;;;;29.25;27.00;;;;;;;;5140734;27;45327;-83
2022/03/11 02:44:49;;;;;;;;;30.50;29.75;;;;;;;;5140734;27;46243;-83
2022/03/11 02:47:14;;;;;;;;;30.00;27.50;;;;;;;;5140449;27;48144;-83
2022/03/11 02:49:40;;;;;;;;;23.00;20.25;;;;;;;;5141768;27;45346;-82
2022/03/11 02:52:05;;;;;;;;;26.50;24.50;;;;;;;;5141900;27;45196;-83
2022/03/11 02:54:30;;;;;;;;;27.75;23.50;;;;;;;;5141761;27;45458;-83
2022/03/11 02:56:56;;;;;;;;;31.50;27.25;;;;;;;;5140400;27;47197;-82
2022/03/11 02:59:21;;;;;;;;;29.25;28.00;;;;;;;;5143442;27;45371;-82
2022/03/11 03:01:46;;;;;;;;;27.25;25.75;;;;;;;;5143384;27;45503;-84
2022/03/11 03:04:12;;;;;;;;;30.50;28.50;;;;;;;;5141114;27;45924;-82
2022/03/11 03:06:37;;;;;;;;;20.00;19.75;;;;;;;;5141064;27;48189;-82
2022/03/11 03:09:03;;;;;;;;;26.25;25.75;;;;;;;;5140034;27;45330;-83
2022/03/11 03:11:28;;;;;;;;;24.50;24.50;;;;;;;;5140262;27;45433;-83
2022/03/11 03:13:53;;;;;;;;;30.50;28.00;;;;;;;;5142183;27;45465;-83
2022/03/11 03:16:18;;;;;;;;;29.00;24.25;;;;;;;;5140096;27;47240;-84
2022/03/11 03:18:43;;;;;;;;;25.50;24.50;;;;;;;;5126199;27;45345;-82
2022/03/11 03:21:09;;;;;;;;;26.25;25.00;;;;;;;;5120772;27;45414;-82
2022/03/11 03:23:34;;;;;;;;;21.00;19.50;;;;;;;;5120732;27;45375;-82
2022/03/11 03:26:01;;;;;;;;;23.50;21.50;;;;;;;;5120469;27;46447;-83
2022/03/11 03:28:26;;;;;;;;;20.67;20.00;;;;;;;;5119096;27;45261;-84
2022/03/11 03:30:52;;;;;;;;;27.25;25.75;;;;;;;;5119257;27;45237;-83
2022/03/11 03:33:17;;;;;;;;;26.75;23.00;;;;;;;;5120681;27;45215;-82
2022/03/11 03:35:43;;;;;;;;;28.00;27.00;;;;;;;;5120736;27;45274;-82
2022/03/11 03:38:13;;;;;;;;;29.33;24.00;;;;;;;;5119589;27;45217;-82
2022/03/11 03:40:39;;;;;;;;;26.00;24.00;;;;;;;;5121023;27;45313;-82
2022/03/11 03:43:04;;;;;;;;;25.25;25.25;;;;;;;;5120240;27;45518;-83
2022/03/11 03:45:31;;;;;;;;;26.00;24.00;;;;;;;;5120372;27;45406;-82
2022/03/11 03:47:56;;;;;;;;;24.33;23.00;;;;;;;;5120264;27;45276;-83
2022/03/11 03:50:21;;;;;;;;;26.67;25.00;;;;;;;;5120470;27;45722;-83
2022/03/11 03:52:47;;;;;;;;;20.00;20.00;;;;;;;;5118858;27;46972;-82
2022/03/11 03:55:12;;;;;;;;;22.50;22.25;;;;;;;;5118637;27;47490;-82
2022/03/11 03:57:38;;;;;;;;;19.25;18.25;;;;;;;;5118928;27;45392;-82
2022/03/11 04:00:04;;;;;;;;;24.75;22.50;;;;;;;;5120420;27;45267;-82
2022/03/11 04:02:29;;;;;;;;;25.75;22.50;;;;;;;;5118339;27;46253;-83
2022/03/11 04:04:55;;;;;;;;;24.00;22.00;;;;;;;;5118907;27;47178;-83
2022/03/11 04:07:20;;;;;;;;;25.00;23.00;;;;;;;;5120819;27;45258;-82
2022/03/11 04:09:45;;;;;;;;;23.50;22.50;;;;;;;;5119486;27;45672;-83
2022/03/11 04:12:11;;;;;;;;;24.50;24.50;;;;;;;;5120587;27;45288;-83
2022/03/11 04:14:36;;;;;;;;;23.00;21.00;;;;;;;;5118503;27;47045;-83
2022/03/11 04:17:01;;;;;;;;;25.25;21.25;;;;;;;;5119864;27;45358;-83
2022/03/11 04:19:27;;;;;;;;;26.00;25.50;;;;;;;;5138304;27;45311;-83
2022/03/11 04:21:53;;;;;;;;;28.00;25.00;;;;;;;;5141907;27;45403;-83
2022/03/11 04:24:18;;;;;;;;;22.00;21.00;;;;;;;;5144123;27;45282;-83
2022/03/11 04:26:44;;;;;;;;;22.50;22.50;;;;;;;;5142721;27;45306;-82
2022/03/11 04:29:10;;;;;;;;;26.50;25.00;;;;;;;;5144185;27;45356;-82
2022/03/11 04:31:35;;;;;;;;;23.75;22.75;;;;;;;;5144236;27;45314;-83
2022/03/11 04:34:02;;;;;;;;;25.25;23.50;;;;;;;;5142348;27;47091;-83
2022/03/11 04:36:28;;;;;;;;;29.50;26.00;;;;;;;;5143978;27;45226;-83
2022/03/11 04:38:54;;;;;;;;;24.75;23.25;;;;;;;;5145242;27;45196;-84
2022/03/11 04:41:19;;;;;;;;;24.75;23.75;;;;;;;;5143245;27;46111;-82
2022/03/11 04:43:45;;;;;;;;;24.50;21.25;;;;;;;;5143763;27;47214;-82
2022/03/11 04:46:10;;;;;;;;;25.50;23.00;;;;;;;;5144779;27;45415;-82
2022/03/11 04:48:36;;;;;;;;;27.75;24.75;;;;;;;;5142604;27;45278;-83
2022/03/11 04:51:02;;;;;;;;;24.25;21.25;;;;;;;;5143728;27;45378;-83
2022/03/11 04:53:27;;;;;;;;;24.50;24.50;;;;;;;;5143720;27;45704;-83
2022/03/11 04:55:52;;;;;;;;;21.50;20.00;;;;;;;;5142249;27;45363;-81
2022/03/11 04:58:17;;;;;;;;;24.00;21.25;;;;;;;;5143862;27;45331;-82
2022/03/11 05:00:43;;;;;;;;;19.50;19.25;;;;;;;;5143863;27;45265;-83
2022/03/11 05:03:08;;;;;;;;;22.50;21.50;;;;;;;;5142529;27;47523;-83
2022/03/11 05:05:33;;;;;;;;;24.50;22.00;;;;;;;;5144233;27;45461;-83
2022/03/11 05:08:00;;;;;;;;;20.25;19.75;;;;;;;;5142508;27;45335;-82
2022/03/11 05:10:25;;;;;;;;;21.25;18.75;;;;;;;;5144948;27;45318;-84
2022/03/11 05:12:51;;;;;;;;;18.00;16.67;;;;;;;;5147751;27;46344;-84
2022/03/11 05:15:16;;;;;;;;;13.33;13.00;;;;;;;;5148700;27;45284;-83
2022/03/11 05:17:41;;;;;;;;;19.33;18.67;;;;;;;;5143048;27;45248;-83
2022/03/11 05:20:06;;;;;;;;;20.00;19.75;;;;;;;;5126122;27;45439;-82
2022/03/11 05:22:32;;;;;;;;;24.25;21.50;;;;;;;;5124377;27;46168;-83
2022/03/11 05:24:57;;;;;;;;;23.75;20.75;;;;;;;;5122483;27;45212;-83
2022/03/11 05:27:22;;;;;;;;;20.00;19.50;;;;;;;;5121126;27;45395;-84
2022/03/11 05:29:48;;;;;;;;;20.50;19.50;;;;;;;;5117744;27;45339;-83
2022/03/11 05:32:14;;;;;;;;;21.50;19.25;;;;;;;;5111539;27;45432;-84
2022/03/11 05:34:42;;;;;;;;;17.00;15.00;;;;;;;;5120544;27;45806;-83
2022/03/11 05:37:07;;;;;;;;;20.00;17.25;;;;;;;;5123593;27;45321;-83
2022/03/11 05:39:33;;;;;;;;;18.50;18.00;;;;;;;;5125498;27;45300;-84
2022/03/11 05:41:58;;;;;;;;;18.75;18.25;;;;;;;;5122515;27;46151;-83
2022/03/11 05:44:24;;;;;;;;;17.50;17.50;;;;;;;;5124035;27;45282;-84
2022/03/11 05:46:49;;;;;;;;;16.00;15.00;;;;;;;;5123787;27;45477;-82
2022/03/11 05:49:14;;;;;;;;;16.00;14.33;;;;;;;;5127108;27;45337;-82
2022/03/11 05:51:40;;;;;;;;;14.00;13.00;;;;;;;;5123512;27;47971;-83
2022/03/11 05:54:05;;;;;;;;;17.67;15.67;;;;;;;;5123535;27;45278;-83
2022/03/11 05:56:31;;;;;;;;;18.50;17.25;;;;;;;;5117803;27;45424;-84
2022/03/11 05:58:56;;;;;;;;;19.50;16.75;;;;;;;;5115266;27;45562;-84
2022/03/11 06:01:21;;;;;;;;;17.00;15.33;;;;;;;;5108125;27;47551;-86
2022/03/11 06:03:46;;;;;;;;;14.00;12.25;;;;;;;;5105606;27;46166;-83
2022/03/11 06:06:14;;;;;;;;;17.50;16.00;;;;;;;;5108727;27;45322;-83
2022/03/11 06:08:39;;;;;;;;;15.67;15.33;;;;;;;;5101662;27;46157;-83
2022/03/11 06:11:05;;;;;;;;;17.67;16.33;;;;;;;;5100775;27;45440;-81
2022/03/11 06:13:30;;;;;;;;;16.50;16.00;;;;;;;;5104308;27;45360;-84
2022/03/11 06:15:55;;;;;;;;;12.67;11.00;;;;;;;;5101396;27;45553;-79
2022/03/11 06:18:20;;;;;;;;;12.33;11.33;;;;;;;;5104701;27;45396;-86
2022/03/11 06:20:46;;;;;;;;;12.33;11.00;;;;;;;;5105107;27;45553;-84
2022/03/11 06:23:11;;;;;;;;;15.00;13.67;;;;;;;;5102059;27;45295;-83
2022/03/11 06:25:36;;;;;;;;;17.00;17.00;;;;;;;;5121339;27;45832;-83
2022/03/11 06:28:02;;;;;;;;;13.00;13.00;;;;;;;;5124272;27;45786;-84
2022/03/11 06:30:27;;;;;;;;;15.33;13.33;;;;;;;;5126817;27;45326;-80
2022/03/11 06:32:52;;;;;;;;;16.33;15.00;;;;;;;;5122987;27;45276;-84
2022/03/11 06:35:18;;;;;;;;;13.33;13.33;;;;;;;;5124623;27;45116;-86
2022/03/11 06:37:44;;;;;;;;;10.00;10.00;;;;;;;;5126982;27;47314;-84
2022/03/11 06:40:11;;;;;;;;;14.67;13.00;;;;;;;;5122412;27;47217;-84
2022/03/11 06:42:37;;;;;;;;;17.00;14.33;;;;;;;;5124080;27;45682;-82
2022/03/11 06:45:02;;;;;;;;;13.33;13.00;;;;;;;;5119063;27;45349;-85
2022/03/11 06:47:27;;;;;;;;;15.00;12.33;;;;;;;;5113283;27;45326;-80
2022/03/11 06:49:53;;;;;;;;;18.00;16.00;;;;;;;;5124539;27;45309;-80
2022/03/11 06:52:18;;;;;;;;;11.33;11.33;;;;;;;;5123226;27;45323;-79
2022/03/11 06:54:43;;;;;;;;;13.00;12.00;;;;;;;;5122600;27;45608;-81
2022/03/11 06:57:08;;;;;;;;;15.67;13.67;;;;;;;;5119936;27;45645;-80
2022/03/11 06:59:33;;;;;;;;;14.67;14.67;;;;;;;;5120743;27;45354;-80
2022/03/11 07:01:59;;;;;;;;;15.00;12.33;;;;;;;;5122896;27;45284;-80
2022/03/11 07:04:24;;;;;;;;;14.00;11.67;;;;;;;;5120589;27;45437;-79
2022/03/11 07:06:49;;;;;;;;;16.67;16.67;;;;;;;;5120764;27;45334;-80
2022/03/11 07:09:14;;;;;;;;;13.67;13.67;;;;;;;;5119354;27;47659;-80
2022/03/11 07:11:39;;;;;;;;;16.00;14.33;;;;;;;;5124556;27;45316;-81
2022/03/11 07:14:05;;;;;;;;;14.00;14.00;;;;;;;;5125145;27;45578;-81
2022/03/11 07:16:30;;;;;;;;;16.33;14.33;;;;;;;;5126586;27;45405;-80
2022/03/11 07:18:55;;;;;;;;;12.00;12.00;;;;;;;;5136325;27;48359;-79
2022/03/11 07:21:20;;;;;;;;;8.00;8.00;;;;;;;;5142590;27;45315;-80
2022/03/11 07:23:50;;;;;;;;;16.00;14.00;;;;;;;;5131242;27;45296;-80
2022/03/11 07:26:15;;;;;;;;;6.33;6.00;;;;;;;;5127623;27;45363;-81
2022/03/11 07:28:40;;;;;;;;;13.00;13.00;;;;;;;;5123017;27;46067;-81
2022/03/11 07:31:06;;;;;;;;;13.00;12.00;;;;;;;;5125685;27;45250;-79
2022/03/11 07:33:31;;;;;;;;;10.67;10.00;;;;;;;;5124213;27;45381;-80
2022/03/11 07:35:56;;;;;;;;;14.00;12.33;;;;;;;;5109421;27;45312;-81
2022/03/11 07:38:24;;;;;;;;;14.00;13.00;;;;;;;;5115777;27;47149;-80
2022/03/11 07:40:49;;;;;;;;;14.00;12.33;;;;;;;;5114803;27;45324;-81
2022/03/11 07:43:15;;;;;;;;;10.00;10.00;;;;;;;;5118255;27;45287;-82
2022/03/11 07:45:40;;;;;;;;;8.67;8.67;;;;;;;;5121847;27;47184;-82
2022/03/11 07:48:05;;;;;;;;;12.67;11.67;;;;;;;;5123002;27;47639;-83
2022/03/11 07:50:32;;;;;;;;;11.00;11.00;;;;;;;;5125166;27;45923;-82
2022/03/11 07:52:57;;;;;;;;;9.67;8.00;;;;;;;;5129617;27;45394;-82
2022/03/11 07:55:22;;;;;;;;;12.67;11.00;;;;;;;;5127024;27;45274;-80
2022/03/11 07:57:47;;;;;;;;;12.00;12.00;;;;;;;;5135851;27;46115;-83
2022/03/11 08:00:13;;;;;;;;;10.00;10.00;;;;;;;;5130824;27;45307;-82
2022/03/11 08:02:39;;;;;;;;;14.67;13.00;;;;;;;;5126661;27;45301;-83
2022/03/11 08:05:05;;;;;;;;;10.33;10.00;;;;;;;;5130278;27;46057;-80
2022/03/11 08:07:30;;;;;;;;;13.00;13.00;;;;;;;;5125444;27;45571;-83
2022/03/11 08:09:55;;;;;;;;;9.67;9.00;;;;;;;;5125390;27;46049;-82
2022/03/11 08:12:20;;;;;;;;;14.00;12.00;;;;;;;;5129035;27;45581;-82
2022/03/11 08:14:46;;;;;;;;;10.00;9.00;;;;;;;;5127934;27;47083;-80
2022/03/11 08:17:11;;;;;;;;;22.00;19.00;;;;;;;;5123982;27;47289;-82
2022/03/11 08:19:36;;;;;;;;;14.00;12.67;;;;;;;;5127831;27;45947;-82
2022/03/11 08:22:02;;;;;;;;;11.33;10.67;;;;;;;;5123164;27;45338;-83
2022/03/11 08:24:28;;;;;;;;;11.67;11.67;;;;;;;;5114885;27;45443;-82
2022/03/11 08:26:54;;;;;;;;;18.33;13.00;;;;;;;;5129392;27;47499;-80
2022/03/11 08:29:20;;;;;;;;;14.67;13.33;;;;;;;;5133095;27;45254;-80
2022/03/11 08:31:46;;;;;;;;;12.00;10.67;;;;;;;;5131115;27;45327;-82
2022/03/11 08:34:12;;;;;;;;;7.67;7.33;;;;;;;;5124219;27;44970;-82
2022/03/11 08:36:39;;;;;;;;;9.67;9.00;;;;;;;;5123286;27;45563;-81
2022/03/11 08:39:05;;;;;;;;;9.00;7.33;;;;;;;;5125139;27;45255;-82
2022/03/11 08:41:31;;;;;;;;;8.00;8.00;;;;;;;;5123279;27;45437;-84
2022/03/11 08:43:56;;;;;;;;;10.00;10.00;;;;;;;;5125823;27;45388;-81
2022/03/11 08:46:22;;;;;;;;;6.67;6.67;;;;;;;;5122512;27;47245;-85
2022/03/11 08:48:47;;;;;;;;;9.00;9.00;;;;;;;;5121096;27;45768;-85
2022/03/11 08:51:13;;;;;;;;;8.33;8.33;;;;;;;;5118961;27;45271;-81
2022/03/11 08:53:38;;;;;;;;;9.00;9.00;;;;;;;;5100876;27;47170;-85
2022/03/11 08:56:03;;;;;;;;;10.00;9.00;;;;;;;;5101131;27;47115;-85
2022/03/11 08:58:29;;;;;;;;;10.33;10.33;;;;;;;;5101191;27;45642;-82
2022/03/11 09:00:55;;;;;;;;;9.33;8.33;;;;;;;;5103109;27;45424;-82
2022/03/11 09:03:20;;;;;;;;;7.00;7.00;;;;;;;;5102193;27;45790;-84
2022/03/11 09:05:46;;;;;;;;;5.33;5.33;;;;;;;;5103545;27;45242;-84
2022/03/11 09:08:11;;;;;;;;;8.00;7.33;;;;;;;;5104944;27;45334;-85
2022/03/11 09:10:36;;;;;;;;;6.00;6.00;;;;;;;;5105289;27;45258;-83
2022/03/11 09:13:02;;;;;;;;;7.00;7.00;;;;;;;;5099940;27;45332;-82
2022/03/11 09:15:27;;;;;;;;;8.67;8.67;;;;;;;;5099775;27;48209;-82
2022/03/11 09:17:52;;;;;;;;;6.67;5.33;;;;;;;;5113785;27;45634;-85
2022/03/11 09:20:18;;;;;;;;;9.00;8.33;;;;;;;;5141571;27;45399;-84
2022/03/11 09:22:43;;;;;;;;;7.00;7.00;;;;;;;;5142892;27;45320;-85
2022/03/11 09:25:09;;;;;;;;;8.00;8.00;;;;;;;;5141551;27;48334;-85
2022/03/11 09:27:35;;;;;;;;;11.33;9.33;;;;;;;;5141947;27;45367;-86
2022/03/11 09:30:00;;;;;;;;;7.00;6.00;;;;;;;;5142600;27;45415;-83
2022/03/11 09:32:25;;;;;;;;;7.00;7.00;;;;;;;;5144692;27;45274;-86
2022/03/11 09:34:51;;;;;;;;;6.00;3.00;;;;;;;;5138412;27;46035;-84
2022/03/11 09:37:16;;;;;;;;;6.33;5.67;;;;;;;;5116647;27;44818;-84
2022/03/11 09:39:42;;;;;;;;;6.00;5.33;;;;;;;;5116745;27;45372;-80
2022/03/11 09:42:07;;;;;;;;;12.67;10.33;;;;;;;;5115600;27;45423;-81
2022/03/11 09:44:33;;;;;;;;;7.67;6.67;;;;;;;;5104449;27;45982;-78
2022/03/11 09:46:59;;;;;;;;;6.00;6.00;;;;;;;;5112534;27;45850;-80
2022/03/11 09:49:24;;;;;;;;;2.00;2.00;;;;;;;;5114134;27;45554;-80
2022/03/11 09:51:50;;;;;;;;;6.00;6.00;;;;;;;;5119430;27;47519;-78
2022/03/11 09:54:15;;;;;;;;;6.33;5.00;;;;;;;;5121864;27;46074;-79
2022/03/11 09:56:42;;;;;;;;;4.33;4.33;;;;;;;;5108097;27;45300;-79
2022/03/11 09:59:08;;;;;;;;;5.67;5.67;;;;;;;;5115722;27;45409;-79
2022/03/11 10:01:33;;;;;;;;;5.00;5.00;;;;;;;;5120915;27;46938;-79
2022/03/11 10:03:58;;;;;;;;;7.00;7.00;;;;;;;;5113354;27;46105;-79
2022/03/11 10:06:44;;;;;;;;;7.00;6.33;;;;;;;;5100575;27;45481;-79
2022/03/11 10:09:32;;;;;;;;;5.33;5.33;;;;;;;;5110046;27;45521;-80
2022/03/11 10:11:58;;;;;;;;;7.00;7.00;;;;;;;;5100969;27;45459;-80
2022/03/11 10:14:31;;;;;;;;;4.67;4.67;;;;;;;;5100795;27;45352;-79
2022/03/11 10:16:56;;;;;;;;;5.00;5.00;;;;;;;;5099432;27;46023;-79
2022/03/11 10:19:22;;;;;;;;;5.00;5.00;;;;;;;;5137796;27;45284;-80
2022/03/11 10:21:47;;;;;;;;;7.00;6.67;;;;;;;;5142362;27;45487;-79
2022/03/11 10:24:14;;;;;;;;;4.67;4.67;;;;;;;;5140729;27;48103;-78
2022/03/11 10:26:40;;;;;;;;;6.33;5.33;;;;;;;;5145059;27;45594;-82
2022/03/11 10:29:08;;;;;;;;;5.33;4.67;;;;;;;;5142335;27;45559;-81
2022/03/11 10:31:35;;;;;;;;;4.33;4.33;;;;;;;;5141272;27;45415;-81
2022/03/11 10:34:13;;;;;;;;;5.00;5.00;;;;;;;;5138320;27;46311;-82
2022/03/11 10:36:46;;;;;;;;;5.00;4.00;;;;;;;;5108624;27;45306;-81
2022/03/11 10:39:20;;;;;;;;;5.67;5.67;;;;;;;;5099521;27;45264;-81
2022/03/11 10:41:46;;;;;;;;;5.00;5.00;;;;;;;;5100923;27;45394;-80
2022/03/11 10:44:12;;;;;;;;;6.33;5.00;;;;;;;;5098945;27;47840;-80
2022/03/11 10:46:38;;;;;;;;;3.33;3.33;;;;;;;;5101330;27;45269;-80
2022/03/11 10:49:04;;;;;;;;;5.67;4.67;;;;;;;;5107544;27;45628;-81
2022/03/11 10:51:31;;;;;;;;;4.33;4.33;;;;;;;;5124834;27;46307;-80
2022/03/11 10:53:57;;;;;;;;;4.00;4.00;;;;;;;;5123539;27;45971;-81
2022/03/11 10:56:26;;;;;;;;;5.00;4.00;;;;;;;;5124833;27;45322;-81
2022/03/11 10:58:52;;;;;;;;;5.67;5.67;;;;;;;;5124762;27;45367;-80
2022/03/11 11:01:32;;;;;;;;;4.00;4.00;;;;;;;;5122098;27;46148;-79
2022/03/11 11:03:58;;;;;;;;;5.00;4.00;;;;;;;;5103494;27;45225;-79
2022/03/11 11:06:23;;;;;;;;;4.33;4.33;;;;;;;;5102556;27;45422;-79
2022/03/11 11:08:49;;;;;;;;;5.00;5.00;;;;;;;;5109423;27;45383;-79
2022/03/11 11:11:14;;;;;;;;;5.33;5.33;;;;;;;;5120357;27;45348;-80
2022/03/11 11:13:39;;;;;;;;;5.00;4.00;;;;;;;;5119297;27;47361;-80
2022/03/11 11:16:06;;;;;;;;;4.00;4.00;;;;;;;;5120800;27;45506;-80
2022/03/11 11:18:32;;;;;;;;;4.67;4.67;;;;;;;;5135484;27;45376;-79
2022/03/11 11:20:58;;;;;;;;;4.00;3.00;;;;;;;;5143754;27;45180;-79
2022/03/11 11:23:24;;;;;;;;;3.67;3.67;;;;;;;;5141254;27;48574;-82
2022/03/11 11:25:50;;;;;;;;;7.00;6.33;;;;;;;;5141453;27;45235;-81
2022/03/11 11:28:17;;;;;;;;;5.33;5.33;;;;;;;;5141352;27;45219;-81
2022/03/11 11:30:43;;;;;;;;;7.67;7.67;;;;;;;;5142075;27;45380;-80
2022/03/11 11:33:09;;;;;;;;;6.33;6.33;;;;;;;;5144591;27;46294;-80
2022/03/11 11:35:38;;;;;;;;;8.00;7.00;;;;;;;;5144722;27;45472;-80
2022/03/11 11:38:05;;;;;;;;;6.00;6.00;;;;;;;;5126370;27;45420;-81
2022/03/11 11:40:44;;;;;;;;;6.33;6.00;;;;;;;;5119078;27;45179;-80
2022/03/11 11:43:13;;;;;;;;;6.67;6.33;;;;;;;;5124674;27;47461;-81
2022/03/11 11:45:44;;;;;;;;;9.00;7.33;;;;;;;;5130945;27;45339;-80
2022/03/11 11:48:28;;;;;;;;;6.33;6.33;;;;;;;;5129244;27;45397;-81
2022/03/11 11:50:53;;;;;;;;;7.33;7.00;;;;;;;;5123083;27;47266;-80
2022/03/11 11:53:30;;;;;;;;;7.67;7.00;;;;;;;;5123823;27;45366;-78
2022/03/11 11:55:56;;;;;;;;;6.67;5.33;;;;;;;;5125318;27;45300;-80
2022/03/11 11:58:21;;;;;;;;;5.00;5.00;;;;;;;;5126806;27;45342;-80
2022/03/11 12:00:53;;;;;;;;;4.33;4.33;;;;;;;;5134951;27;45255;-79
2022/03/11 12:03:18;;;;;;;;;6.33;6.33;;;;;;;;5133873;27;45360;-80
2022/03/11 12:05:45;;;;;;;;;4.67;4.67;;;;;;;;5129238;27;45697;-80
2022/03/11 12:08:31;;;;;;;;;3.33;3.33;;;;;;;;5126973;27;44789;-79
2022/03/11 12:10:56;;;;;;;;;6.00;5.67;;;;;;;;5121237;27;45512;-79
2022/03/11 12:13:32;;;;;;;;;6.67;5.00;;;;;;;;5115141;27;46533;-79
2022/03/11 12:15:58;;;;;;;;;5.67;5.67;;;;;;;;5103011;27;45511;-82
2022/03/11 12:18:37;;;;;;;;;8.00;8.00;;;;;;;;5113395;27;45296;-76
2022/03/11 12:21:02;;;;;;;;;7.33;6.67;;;;;;;;5110927;27;45953;-78
2022/03/11 12:23:32;;;;;;;;;8.33;7.33;;;;;;;;5104209;27;45336;-80
2022/03/11 12:26:06;;;;;;;;;6.67;6.00;;;;;;;;5105689;27;46146;-82
2022/03/11 12:28:32;;;;;;;;;3.33;3.33;;;;;;;;5105545;27;45465;-79
2022/03/11 12:30:58;;;;;;;;;6.33;6.33;;;;;;;;5103807;27;45349;-79
2022/03/11 12:33:42;;;;;;;;;7.33;7.33;;;;;;;;5103041;27;46145;-78
2022/03/11 12:36:12;;;;;;;;;5.67;5.67;;;;;;;;5109135;27;45366;-78
2022/03/11 12:38:38;;;;;;;;;5.33;5.33;;;;;;;;5107816;27;45779;-78
2022/03/11 12:41:08;;;;;;;;;5.00;5.00;;;;;;;;5105506;27;47283;-77
2022/03/11 12:43:34;;;;;;;;;6.50;6.50;;;;;;;;5109164;27;45494;-77
2022/03/11 12:45:59;;;;;;;;;5.67;5.67;;;;;;;;5111132;27;45348;-78
2022/03/11 12:48:28;;;;;;;;;5.00;5.00;;;;;;;;5109091;27;45320;-77
2022/03/11 12:50:53;;;;;;;;;9.00;6.00;;;;;;;;5114878;27;45485;-78
2022/03/11 12:53:19;;;;;;;;;5.67;5.67;;;;;;;;5105059;27;45598;-78
2022/03/11 12:55:46;;;;;;;;;6.67;6.33;;;;;;;;5117748;27;45395;-77
2022/03/11 12:58:14;;;;;;;;;7.33;7.33;;;;;;;;5113220;27;45379;-78
2022/03/11 13:00:40;;;;;;;;;7.33;7.33;;;;;;;;5112364;27;45607;-78
2022/03/11 13:03:10;;;;;;;;;7.33;7.33;;;;;;;;5112729;27;45329;-79
2022/03/11 13:05:37;;;;;;;;;6.67;6.33;;;;;;;;5101809;27;45379;-81
2022/03/11 13:08:06;;;;;;;;;8.00;7.67;;;;;;;;5112581;27;45340;-79
2022/03/11 13:10:32;;;;;;;;;6.33;6.00;;;;;;;;5104860;27;45626;-78
2022/03/11 13:12:58;;;;;;;;;7.67;7.00;;;;;;;;5103268;27;48236;-77
2022/03/11 13:15:28;;;;;;;;;9.00;9.00;;;;;;;;5102483;27;45388;-78
2022/03/11 13:18:01;;;;;;;;;7.67;7.33;;;;;;;;5109642;27;45440;-78
2022/03/11 13:20:26;;;;;;;;;8.00;7.67;;;;;;;;5106851;27;45663;-81
2022/03/11 13:22:51;;;;;;;;;8.33;8.33;;;;;;;;5104564;27;46377;-80
2022/03/11 13:25:22;;;;;;;;;11.33;9.00;;;;;;;;5122415;27;45262;-80
2022/03/11 13:27:48;;;;;;;;;5.33;5.33;;;;;;;;5117498;27;45385;-80
2022/03/11 13:30:13;;;;;;;;;5.33;5.33;;;;;;;;5102403;27;46058;-82
2022/03/11 13:32:39;;;;;;;;;8.33;6.67;;;;;;;;5120200;27;47427;-80
2022/03/11 13:35:05;;;;;;;;;8.00;8.00;;;;;;;;5120202;27;45654;-81
2022/03/11 13:37:40;;;;;;;;;6.67;6.67;;;;;;;;5120575;27;45426;-80
2022/03/11 13:40:06;;;;;;;;;5.67;5.67;;;;;;;;5099245;27;45331;-81
2022/03/11 13:42:31;;;;;;;;;7.00;6.00;;;;;;;;5098222;27;46463;-82
2022/03/11 13:45:04;;;;;;;;;6.67;6.67;;;;;;;;5100340;27;45551;-83
2022/03/11 13:47:30;;;;;;;;;6.33;6.33;;;;;;;;5099689;27;45446;-83
2022/03/11 13:50:04;;;;;;;;;6.00;5.00;;;;;;;;5101402;27;45523;-81
2022/03/11 13:52:38;;;;;;;;;5.00;5.00;;;;;;;;5101321;27;46372;-82
2022/03/11 13:55:06;;;;;;;;;6.67;6.33;;;;;;;;5099622;27;45427;-82
2022/03/11 13:57:35;;;;;;;;;6.00;6.00;;;;;;;;5101833;27;45404;-82
2022/03/11 14:00:15;;;;;;;;;5.00;5.00;;;;;;;;5100297;27;46110;-83
2022/03/11 14:02:41;;;;;;;;;4.00;4.00;;;;;;;;5104896;27;47212;-84
2022/03/11 14:05:08;;;;;;;;;7.00;6.67;;;;;;;;5121832;27;45404;-81
2022/03/11 14:07:33;;;;;;;;;5.67;5.67;;;;;;;;5122006;27;45298;-82
2022/03/11 14:09:58;;;;;;;;;6.33;6.33;;;;;;;;5120203;27;46259;-82
2022/03/11 14:12:24;;;;;;;;;7.00;7.00;;;;;;;;5120175;27;46240;-83
2022/03/11 14:14:50;;;;;;;;;8.00;8.00;;;;;;;;5111826;27;45480;-82
2022/03/11 14:17:26;;;;;;;;;9.00;7.67;;;;;;;;5103022;27;45319;-82
2022/03/11 14:19:51;;;;;;;;;8.33;7.00;;;;;;;;5104130;27;46607;-82
2022/03/11 14:22:17;;;;;;;;;5.00;5.00;;;;;;;;5100306;27;48137;-81
2022/03/11 14:24:42;;;;;;;;;6.67;6.00;;;;;;;;5102728;27;45815;-83